Time;durP1;ratioP1;P1;durP2;ratioP2;P2;SDS_P1;SDS_P2;PMS_P1;PMS_P2;Temp;Humidity;BMP_temperature;BMP_pressure;BME280_temperature;BME280_humidity;BME280_pressure;Samples;Min_cycle;Max_cycle;Signal;HPM_P1;HPM_P2
2022/03/07 00:02:07;;;;;;;12.57;6.70;;;-1.50;99.90;;;;;;5042440;28;20041;-92
2022/03/07 00:04:33;;;;;;;14.60;6.68;;;-1.40;99.90;;;;;;5059120;28;20066;-92
2022/03/07 00:06:59;;;;;;;13.15;7.32;;;-1.50;99.90;;;;;;5042567;28;20479;-92
2022/03/07 00:09:25;;;;;;;12.32;7.13;;;-1.60;99.90;;;;;;5045187;28;20040;-92
2022/03/07 00:11:51;;;;;;;12.88;7.80;;;-1.60;99.90;;;;;;5059380;28;20044;-92
2022/03/07 00:14:17;;;;;;;13.13;7.13;;;-1.60;99.90;;;;;;5058372;28;20411;-92
2022/03/07 00:16:42;;;;;;;13.32;7.15;;;-1.70;99.90;;;;;;5058546;28;20040;-92
2022/03/07 00:19:08;;;;;;;14.75;7.38;;;-1.70;99.90;;;;;;5058402;28;20071;-91
2022/03/07 00:21:37;;;;;;;12.55;7.47;;;-1.70;99.90;;;;;;5041368;28;20075;-93
2022/03/07 00:24:07;;;;;;;14.70;7.85;;;-1.70;99.90;;;;;;5058084;28;20497;-92
2022/03/07 00:26:33;;;;;;;15.90;7.18;;;-1.80;99.90;;;;;;5058083;28;20047;-92
2022/03/07 00:28:59;;;;;;;14.18;7.18;;;-1.80;99.90;;;;;;5058117;28;20565;-93
2022/03/07 00:31:25;;;;;;;13.77;7.15;;;-1.90;99.90;;;;;;5041138;28;20037;-92
2022/03/07 00:33:51;;;;;;;18.13;8.20;;;-1.90;99.90;;;;;;5058240;28;20441;-92
2022/03/07 00:36:18;;;;;;;14.25;7.10;;;-1.90;99.90;;;;;;5058168;28;20055;-92
2022/03/07 00:38:43;;;;;;;15.27;7.43;;;-1.90;99.90;;;;;;5058017;28;20040;-93
2022/03/07 00:41:09;;;;;;;17.13;7.80;;;-2.00;99.90;;;;;;5057819;28;20051;-92
2022/03/07 00:43:36;;;;;;;13.68;7.30;;;-2.00;99.90;;;;;;5058093;28;20052;-92
2022/03/07 00:46:02;;;;;;;16.10;7.82;;;-2.00;99.90;;;;;;5058225;28;20051;-92
2022/03/07 00:48:28;;;;;;;13.40;8.00;;;-2.00;99.90;;;;;;5041040;28;20057;-92
2022/03/07 00:50:54;;;;;;;15.23;7.57;;;-2.00;99.90;;;;;;5057322;28;20051;-92
2022/03/07 00:53:24;;;;;;;16.17;7.90;;;-2.10;99.90;;;;;;5057862;28;20466;-92
2022/03/07 00:55:51;;;;;;;16.75;8.07;;;-2.10;99.90;;;;;;5040592;28;20044;-92
2022/03/07 00:58:17;;;;;;;12.05;7.40;;;-2.10;99.90;;;;;;5057711;28;20131;-93
2022/03/07 01:00:43;;;;;;;14.90;7.38;;;-2.10;99.90;;;;;;5041077;28;20076;-92
2022/03/07 01:03:11;;;;;;;15.25;7.78;;;-2.20;99.90;;;;;;5057015;28;20371;-93
2022/03/07 01:05:38;;;;;;;13.38;7.45;;;-2.20;99.90;;;;;;5040775;28;20041;-93
2022/03/07 01:08:04;;;;;;;15.43;8.55;;;-2.30;99.90;;;;;;5040445;28;20110;-92
2022/03/07 01:10:30;;;;;;;12.98;7.90;;;-2.30;99.90;;;;;;5040587;28;20075;-93
2022/03/07 01:12:56;;;;;;;14.02;7.97;;;-2.30;99.90;;;;;;5040916;28;20094;-92
2022/03/07 01:15:21;;;;;;;16.75;8.32;;;-2.30;99.90;;;;;;5057304;28;20040;-93
2022/03/07 01:17:48;;;;;;;18.15;8.43;;;-2.30;99.90;;;;;;5040390;28;20071;-92
2022/03/07 01:20:14;;;;;;;13.98;8.02;;;-2.30;99.90;;;;;;5040708;28;20546;-93
2022/03/07 01:22:43;;;;;;;15.48;8.68;;;-2.40;99.90;;;;;;5056978;28;20131;-94
2022/03/07 01:25:10;;;;;;;15.40;8.13;;;-2.40;99.90;;;;;;5040398;28;20049;-93
2022/03/07 01:27:35;;;;;;;18.10;8.75;;;-2.40;99.90;;;;;;5057135;28;20534;-92
2022/03/07 01:30:03;;;;;;;16.77;8.13;;;-2.40;99.90;;;;;;5057262;28;20041;-93
2022/03/07 01:32:28;;;;;;;21.98;8.75;;;-2.40;99.90;;;;;;5040315;28;20056;-93
2022/03/07 01:34:54;;;;;;;15.30;8.10;;;-2.40;99.90;;;;;;5040308;28;20044;-92
2022/03/07 01:37:20;;;;;;;16.90;8.45;;;-2.40;99.90;;;;;;5057019;28;20131;-92
2022/03/07 01:39:46;;;;;;;17.52;8.85;;;-2.40;99.90;;;;;;5056883;28;20040;-93
2022/03/07 01:42:12;;;;;;;16.27;8.68;;;-2.40;99.90;;;;;;5040109;28;20044;-92
2022/03/07 01:44:38;;;;;;;19.83;9.13;;;-2.40;99.90;;;;;;5056909;28;20106;-92
2022/03/07 01:47:04;;;;;;;14.25;8.23;;;-2.30;99.90;;;;;;5040254;28;20135;-92
2022/03/07 01:49:30;;;;;;;18.08;8.98;;;-2.00;99.90;;;;;;5056832;28;20040;-95
2022/03/07 01:51:57;;;;;;;17.02;8.77;;;-2.30;99.90;;;;;;5056127;28;20033;-93
2022/03/07 01:54:25;;;;;;;16.75;8.77;;;-2.30;99.90;;;;;;5056468;28;20048;-91
2022/03/07 01:56:52;;;;;;;16.73;8.70;;;-2.30;99.90;;;;;;5056853;28;20075;-93
2022/03/07 01:59:21;;;;;;;21.23;8.30;;;-2.30;99.90;;;;;;5056660;28;20152;-93
2022/03/07 02:01:47;;;;;;;18.38;8.15;;;-2.40;99.90;;;;;;5040046;28;20097;-93
2022/03/07 02:04:12;;;;;;;17.77;8.13;;;-2.40;99.90;;;;;;5056122;28;20437;-94
2022/03/07 02:06:39;;;;;;;13.93;8.65;;;-2.50;99.90;;;;;;5039815;28;20041;-93
2022/03/07 02:09:06;;;;;;;12.45;8.13;;;-2.50;99.90;;;;;;5039700;28;20044;-92
2022/03/07 02:11:32;;;;;;;17.13;8.68;;;-2.60;99.90;;;;;;5039410;28;20127;-93
2022/03/07 02:14:10;;;;;;;17.27;8.40;;;-2.60;99.90;;;;;;5038876;28;20093;-93
2022/03/07 02:16:36;;;;;;;15.85;8.27;;;-2.60;99.90;;;;;;5039829;28;20446;-92
2022/03/07 02:19:02;;;;;;;16.90;8.90;;;-2.70;99.90;;;;;;5039403;28;20418;-94
2022/03/07 02:21:30;;;;;;;17.30;8.93;;;-2.30;99.90;;;;;;5056280;28;20113;-94
2022/03/07 02:23:55;;;;;;;17.45;9.00;;;-3.00;99.90;;;;;;5039490;28;20048;-93
2022/03/07 02:26:21;;;;;;;20.35;8.50;;;-2.60;99.90;;;;;;5056327;28;20060;-94
2022/03/07 02:28:47;;;;;;;15.65;8.70;;;-2.70;99.90;;;;;;5039464;28;20048;-94
2022/03/07 02:31:18;;;;;;;18.33;9.38;;;-2.80;99.90;;;;;;5039357;28;20036;-94
2022/03/07 02:33:44;;;;;;;18.55;8.88;;;-2.50;99.90;;;;;;5039832;28;20049;-94
2022/03/07 02:36:09;;;;;;;16.58;9.15;;;-2.70;99.90;;;;;;5039457;28;20045;-94
2022/03/07 02:38:35;;;;;;;19.23;9.15;;;-2.80;99.90;;;;;;5039169;28;20087;-95
2022/03/07 02:41:01;;;;;;;23.08;10.70;;;-2.80;99.90;;;;;;5039182;28;20106;-94
2022/03/07 02:43:27;;;;;;;17.90;9.35;;;-2.60;99.90;;;;;;5039214;28;20098;-94
2022/03/07 02:45:54;;;;;;;15.95;8.88;;;-2.90;99.90;;;;;;5039646;28;20041;-95
2022/03/07 02:48:20;;;;;;;17.70;8.52;;;-2.70;99.90;;;;;;5038965;28;20131;-96
2022/03/07 02:50:46;;;;;;;16.58;8.45;;;-3.00;99.90;;;;;;5039017;28;20127;-95
2022/03/07 02:53:12;;;;;;;15.57;8.20;;;-2.80;99.90;;;;;;5055704;28;20048;-93
2022/03/07 02:55:38;;;;;;;16.08;8.50;;;-3.00;99.90;;;;;;5039407;28;20053;-93
2022/03/07 02:58:04;;;;;;;17.77;8.77;;;-2.40;99.90;;;;;;5039292;28;20051;-93
2022/03/07 03:00:31;;;;;;;16.20;8.55;;;-3.10;99.90;;;;;;5039033;28;20098;-94
2022/03/07 03:02:56;;;;;;;14.80;8.15;;;-3.10;99.90;;;;;;5055791;28;20047;-94
2022/03/07 03:05:23;;;;;;;19.15;8.32;;;-3.10;99.90;;;;;;5039164;28;20052;-93
2022/03/07 03:07:51;;;;;;;15.23;8.43;;;-3.10;99.90;;;;;;5039033;28;20109;-92
2022/03/07 03:10:18;;;;;;;15.88;8.98;;;-3.10;99.90;;;;;;5039052;28;20045;-94
2022/03/07 03:12:45;;;;;;;18.08;8.38;;;-3.20;99.90;;;;;;5039420;28;20040;-93
2022/03/07 03:15:11;;;;;;;16.10;8.32;;;-3.20;99.90;;;;;;5039330;28;20048;-95
2022/03/07 03:17:43;;;;;;;19.08;8.50;;;-3.10;99.90;;;;;;5039015;28;20048;-94
2022/03/07 03:20:11;;;;;;;19.25;8.57;;;-3.30;99.90;;;;;;5039131;28;20049;-94
2022/03/07 03:22:38;;;;;;;21.63;9.27;;;-3.30;99.90;;;;;;5055452;28;20118;-93
2022/03/07 03:25:06;;;;;;;12.30;7.43;;;-3.50;99.90;;;;;;5039400;28;20045;-94
2022/03/07 03:27:32;;;;;;;17.17;8.27;;;-3.30;99.90;;;;;;5059293;28;20098;-95
2022/03/07 03:29:58;;;;;;;14.10;7.88;;;-2.90;99.90;;;;;;5042336;28;20052;-93
2022/03/07 03:32:25;;;;;;;14.00;7.82;;;-3.30;99.90;;;;;;5042223;28;20063;-93
2022/03/07 03:34:50;;;;;;;21.30;8.93;;;-3.30;99.90;;;;;;5059504;28;20123;-93
2022/03/07 03:37:16;;;;;;;16.02;8.52;;;-3.30;99.90;;;;;;5042440;28;20052;-92
2022/03/07 03:39:42;;;;;;;14.77;8.32;;;-3.20;99.90;;;;;;5059542;28;20044;-93
2022/03/07 03:42:07;;;;;;;17.20;8.88;;;-3.40;99.90;;;;;;5059744;28;20566;-93
2022/03/07 03:44:33;;;;;;;15.25;8.68;;;-2.90;99.90;;;;;;5042769;28;20048;-93
2022/03/07 03:46:59;;;;;;;18.20;9.25;;;-3.20;99.90;;;;;;5042567;28;20049;-94
2022/03/07 03:49:24;;;;;;;20.02;9.55;;;-3.30;99.90;;;;;;5042669;28;20048;-92
2022/03/07 03:51:50;;;;;;;15.82;8.13;;;-3.40;99.90;;;;;;5042160;28;20486;-93
2022/03/07 03:54:16;;;;;;;18.20;8.48;;;-3.30;99.90;;;;;;5042128;28;20045;-93
2022/03/07 03:56:41;;;;;;;13.05;7.90;;;-3.40;99.90;;;;;;5042546;28;20059;-94
2022/03/07 03:59:07;;;;;;;19.02;8.52;;;-3.40;99.90;;;;;;5058826;28;20098;-94
2022/03/07 04:01:34;;;;;;;17.27;8.43;;;-3.30;99.90;;;;;;5058814;28;20048;-93
2022/03/07 04:03:59;;;;;;;17.98;7.90;;;-3.30;99.90;;;;;;5042279;28;20083;-93
2022/03/07 04:06:25;;;;;;;14.55;8.40;;;-3.40;99.90;;;;;;5042350;28;20068;-93
2022/03/07 04:08:58;;;;;;;12.57;7.80;;;-3.40;99.90;;;;;;5058564;28;20040;-94
2022/03/07 04:11:25;;;;;;;14.45;8.10;;;-3.50;99.90;;;;;;5040962;28;20041;-93
2022/03/07 04:13:51;;;;;;;17.25;8.27;;;-3.50;99.90;;;;;;5041880;28;20090;-93
2022/03/07 04:16:17;;;;;;;14.57;7.88;;;-3.50;99.90;;;;;;5042102;28;20438;-93
2022/03/07 04:18:42;;;;;;;17.33;8.70;;;-3.50;99.90;;;;;;5042119;28;20063;-93
2022/03/07 04:21:08;;;;;;;17.67;8.32;;;-3.50;99.90;;;;;;5058305;28;20053;-94
2022/03/07 04:23:34;;;;;;;13.57;7.50;;;-3.40;99.90;;;;;;5041639;28;20060;-93
2022/03/07 04:25:59;;;;;;;17.75;8.27;;;-3.60;99.90;;;;;;5042046;28;20047;-93
2022/03/07 04:28:25;;;;;;;17.08;8.65;;;-3.30;99.90;;;;;;5058421;28;20051;-94
2022/03/07 04:30:51;;;;;;;17.15;8.35;;;-3.20;99.90;;;;;;5041725;28;20040;-93
2022/03/07 04:33:16;;;;;;;17.55;8.15;;;-3.50;99.90;;;;;;5058306;28;20037;-93
2022/03/07 04:35:42;;;;;;;16.23;7.90;;;-3.60;99.90;;;;;;5058247;28;20494;-94
2022/03/07 04:38:08;;;;;;;18.40;8.35;;;-3.60;99.90;;;;;;5040424;28;20485;-93
2022/03/07 04:40:34;;;;;;;15.02;8.95;;;-3.50;99.90;;;;;;5041639;28;20040;-93
2022/03/07 04:43:01;;;;;;;20.42;8.57;;;-3.60;99.90;;;;;;5041586;28;20041;-93
2022/03/07 04:45:27;;;;;;;15.07;8.90;;;-3.60;99.90;;;;;;5041580;28;20516;-93
2022/03/07 04:47:52;;;;;;;19.42;9.00;;;-3.50;99.90;;;;;;5057998;28;20040;-93
2022/03/07 04:50:18;;;;;;;20.23;9.50;;;-3.50;99.90;;;;;;5041528;28;20041;-92
2022/03/07 04:52:44;;;;;;;20.20;10.68;;;-3.50;99.90;;;;;;5057860;28;20044;-93
2022/03/07 04:55:13;;;;;;;22.38;11.60;;;-3.50;99.90;;;;;;5041309;28;20139;-93
2022/03/07 04:57:39;;;;;;;21.48;11.00;;;-3.40;99.90;;;;;;5041222;28;20102;-94
2022/03/07 05:00:07;;;;;;;27.80;12.35;;;-3.40;99.90;;;;;;5041036;28;20052;-93
2022/03/07 05:02:33;;;;;;;23.42;11.45;;;-3.30;99.90;;;;;;5057615;28;20397;-93
2022/03/07 05:04:59;;;;;;;25.25;11.68;;;-3.20;99.90;;;;;;5040377;28;20049;-94
2022/03/07 05:07:25;;;;;;;25.88;11.57;;;-3.20;99.90;;;;;;5040791;28;20040;-94
2022/03/07 05:09:50;;;;;;;20.30;9.70;;;-3.20;99.90;;;;;;5040803;28;20421;-94
2022/03/07 05:12:16;;;;;;;20.60;11.23;;;-3.20;99.90;;;;;;5057553;28;20108;-93
2022/03/07 05:14:41;;;;;;;26.15;12.48;;;-3.20;99.90;;;;;;5040609;28;20472;-93
2022/03/07 05:17:07;;;;;;;20.17;11.20;;;-3.10;99.90;;;;;;5040272;28;20170;-93
2022/03/07 05:19:33;;;;;;;22.08;10.70;;;-3.20;99.90;;;;;;5057383;28;20044;-94
2022/03/07 05:21:59;;;;;;;23.40;11.57;;;-3.20;99.90;;;;;;5040338;28;20087;-94
2022/03/07 05:24:26;;;;;;;23.13;10.95;;;-3.20;99.90;;;;;;5040367;28;20044;-93
2022/03/07 05:26:52;;;;;;;25.08;11.63;;;-3.20;99.90;;;;;;5040978;28;20048;-93
2022/03/07 05:29:18;;;;;;;24.05;11.30;;;-3.10;99.90;;;;;;5040519;28;20054;-93
2022/03/07 05:31:43;;;;;;;20.20;11.05;;;-3.20;99.90;;;;;;5039808;28;20048;-93
2022/03/07 05:34:09;;;;;;;22.90;11.25;;;-3.20;99.90;;;;;;5057312;28;20044;-94
2022/03/07 05:36:35;;;;;;;20.25;10.50;;;-3.20;99.90;;;;;;5056791;28;20048;-94
2022/03/07 05:39:02;;;;;;;20.23;10.60;;;-3.20;99.90;;;;;;5040315;28;20102;-94
2022/03/07 05:41:28;;;;;;;23.17;11.65;;;-3.20;99.90;;;;;;5056545;28;20051;-94
2022/03/07 05:43:53;;;;;;;21.20;11.38;;;-3.20;99.90;;;;;;5040552;28;20036;-94
2022/03/07 05:46:19;;;;;;;23.42;11.73;;;-3.20;99.90;;;;;;5035575;28;20051;-93
2022/03/07 05:48:45;;;;;;;22.13;12.18;;;-3.00;99.90;;;;;;5059966;28;20036;-94
2022/03/07 05:51:11;;;;;;;20.23;11.20;;;-2.90;99.90;;;;;;5059840;28;20486;-93
2022/03/07 05:53:37;;;;;;;21.33;11.98;;;-3.10;99.90;;;;;;5060013;28;20447;-93
2022/03/07 05:56:03;;;;;;;26.67;12.75;;;-3.00;99.90;;;;;;5076500;28;20047;-93
2022/03/07 05:58:29;;;;;;;23.67;12.52;;;-2.90;99.90;;;;;;5059488;28;20040;-93
2022/03/07 06:00:55;;;;;;;24.52;11.98;;;-2.90;99.90;;;;;;5058964;28;20040;-94
2022/03/07 06:03:21;;;;;;;24.33;12.75;;;-2.80;99.90;;;;;;5059692;28;20358;-93
2022/03/07 06:05:47;;;;;;;25.20;12.77;;;-2.80;99.90;;;;;;5076296;28;20048;-93
2022/03/07 06:08:12;;;;;;;22.52;12.50;;;-2.80;99.90;;;;;;5059713;28;20055;-93
2022/03/07 06:10:38;;;;;;;22.67;12.55;;;-2.80;99.90;;;;;;5059591;28;20044;-94
2022/03/07 06:13:04;;;;;;;28.42;13.18;;;-2.80;99.90;;;;;;5059913;28;20055;-92
2022/03/07 06:15:32;;;;;;;23.95;13.05;;;-2.70;99.90;;;;;;5076645;28;20044;-96
2022/03/07 06:17:58;;;;;;;27.02;13.18;;;-2.70;99.90;;;;;;5059695;28;20436;-93
2022/03/07 06:20:27;;;;;;;28.05;13.55;;;-2.60;99.90;;;;;;5059248;28;20101;-93
2022/03/07 06:22:53;;;;;;;30.13;13.75;;;-2.50;99.90;;;;;;5076281;28;20056;-92
2022/03/07 06:25:19;;;;;;;27.02;12.82;;;-2.50;99.90;;;;;;5059391;28;20089;-93
2022/03/07 06:27:45;;;;;;;28.88;14.35;;;-2.40;99.90;;;;;;5076486;28;20111;-92
2022/03/07 06:30:11;;;;;;;30.77;14.00;;;-2.30;99.90;;;;;;5076100;28;20488;-93
2022/03/07 06:32:37;;;;;;;24.33;12.75;;;-2.30;99.90;;;;;;5076233;28;20131;-93
2022/03/07 06:35:04;;;;;;;28.23;13.95;;;-2.20;99.90;;;;;;5059662;28;20079;-94
2022/03/07 06:37:30;;;;;;;25.48;14.32;;;-2.20;99.90;;;;;;5059465;28;20133;-94
2022/03/07 06:39:56;;;;;;;20.95;12.23;;;-2.10;99.90;;;;;;5075746;28;20143;-93
2022/03/07 06:42:21;;;;;;;30.63;13.98;;;-2.20;99.90;;;;;;5075907;28;20048;-93
2022/03/07 06:44:47;;;;;;;26.15;14.10;;;-2.10;99.90;;;;;;5077196;28;20073;-94
2022/03/07 06:47:13;;;;;;;28.13;13.75;;;-2.10;99.90;;;;;;5059806;28;20052;-94
2022/03/07 06:49:40;;;;;;;27.45;14.02;;;-1.90;99.90;;;;;;5076329;28;20074;-93
2022/03/07 06:52:06;;;;;;;26.77;13.18;;;-2.00;99.90;;;;;;5075745;28;20070;-93
2022/03/07 06:54:32;;;;;;;23.42;12.20;;;-1.90;99.90;;;;;;5059075;28;20044;-93
2022/03/07 06:56:58;;;;;;;21.08;12.77;;;-1.80;99.90;;;;;;5058813;28;20052;-93
2022/03/07 06:59:24;;;;;;;29.25;13.48;;;-1.30;99.90;;;;;;5075797;28;20127;-93
2022/03/07 07:01:49;;;;;;;26.15;14.05;;;-1.50;99.90;;;;;;5062779;28;20078;-93
2022/03/07 07:04:15;;;;;;;25.40;13.40;;;-1.60;99.90;;;;;;5080114;28;20446;-93
2022/03/07 07:06:41;;;;;;;25.20;14.07;;;-1.50;99.90;;;;;;5062983;28;20040;-93
2022/03/07 07:09:07;;;;;;;26.58;13.57;;;-1.50;99.90;;;;;;5079584;28;20044;-94
2022/03/07 07:11:32;;;;;;;25.23;13.95;;;-1.40;99.90;;;;;;5062903;28;20040;-94
2022/03/07 07:13:58;;;;;;;26.38;14.10;;;-0.90;99.90;;;;;;5063014;28;20052;-94
2022/03/07 07:16:24;;;;;;;28.88;14.02;;;-0.80;99.90;;;;;;5079814;28;20040;-93
2022/03/07 07:18:49;;;;;;;27.92;14.77;;;-0.90;99.90;;;;;;5066135;28;20077;-93
2022/03/07 07:21:15;;;;;;;34.63;15.18;;;-1.00;99.90;;;;;;5059985;28;20053;-92
2022/03/07 07:23:41;;;;;;;25.13;14.75;;;-1.00;99.90;;;;;;5076726;28;20045;-93
2022/03/07 07:26:07;;;;;;;27.42;14.68;;;-1.00;99.90;;;;;;5063060;28;20126;-93
2022/03/07 07:28:33;;;;;;;32.17;15.05;;;-1.00;99.90;;;;;;5069400;28;20122;-94
2022/03/07 07:30:59;;;;;;;24.98;14.98;;;-0.90;99.90;;;;;;5060354;28;20041;-93
2022/03/07 07:33:24;;;;;;;24.85;14.35;;;-0.90;99.90;;;;;;5063095;28;20044;-93
2022/03/07 07:35:50;;;;;;;28.77;15.10;;;-0.90;99.90;;;;;;5080025;28;20052;-91
2022/03/07 07:38:16;;;;;;;21.73;13.80;;;-0.90;99.90;;;;;;5064413;28;20048;-92
2022/03/07 07:40:43;;;;;;;25.00;14.85;;;-0.80;99.90;;;;;;5069597;28;20565;-94
2022/03/07 07:43:09;;;;;;;28.08;14.27;;;-0.70;99.90;;;;;;5062994;28;20098;-93
2022/03/07 07:45:34;;;;;;;27.10;13.98;;;-0.50;99.90;;;;;;5063183;28;20601;-93
2022/03/07 07:48:00;;;;;;;25.95;13.98;;;-0.20;99.90;;;;;;5063165;28;20052;-92
2022/03/07 07:50:27;;;;;;;26.77;14.98;;;-0.20;99.90;;;;;;5079109;28;20131;-92
2022/03/07 07:52:54;;;;;;;20.02;12.63;;;0.30;99.90;;;;;;5079337;28;20051;-93
2022/03/07 07:55:21;;;;;;;23.10;13.88;;;0.20;99.90;;;;;;5079486;28;20139;-92
2022/03/07 07:57:47;;;;;;;27.65;14.30;;;0.30;99.90;;;;;;5079849;28;20041;-92
2022/03/07 08:00:19;;;;;;;25.17;14.23;;;0.40;99.90;;;;;;5080996;28;20135;-91
2022/03/07 08:02:47;;;;;;;23.73;13.55;;;0.50;99.90;;;;;;5066711;28;20059;-91
2022/03/07 08:05:13;;;;;;;27.00;14.20;;;0.80;99.90;;;;;;5087650;28;20051;-93
2022/03/07 08:07:41;;;;;;;24.52;13.23;;;0.60;99.90;;;;;;5087525;28;20069;-90
2022/03/07 08:10:07;;;;;;;25.95;13.02;;;0.80;99.90;;;;;;5071597;28;20048;-91
2022/03/07 08:12:33;;;;;;;21.58;13.05;;;0.90;99.90;;;;;;5091665;28;20131;-90
2022/03/07 08:14:59;;;;;;;18.38;12.30;;;1.00;99.90;;;;;;5091005;28;20044;-91
2022/03/07 08:17:24;;;;;;;23.45;13.65;;;1.10;99.90;;;;;;5087636;28;20040;-91
2022/03/07 08:19:50;;;;;;;21.80;13.02;;;1.20;99.90;;;;;;5071222;28;20100;-91
2022/03/07 08:22:15;;;;;;;20.27;13.73;;;1.30;99.90;;;;;;5092183;28;20044;-91
2022/03/07 08:24:42;;;;;;;18.63;13.75;;;1.50;99.90;;;;;;5076066;28;20048;-91
2022/03/07 08:27:07;;;;;;;22.15;12.50;;;2.00;99.90;;;;;;5090607;28;20044;-90
2022/03/07 08:29:33;;;;;;;20.67;12.25;;;2.00;99.90;;;;;;5086717;28;20066;-91
2022/03/07 08:31:59;;;;;;;16.67;10.32;;;2.20;99.90;;;;;;5085602;28;20059;-91
2022/03/07 08:34:24;;;;;;;14.85;9.05;;;2.40;99.90;;;;;;5078642;28;20052;-90
2022/03/07 08:36:50;;;;;;;14.23;7.45;;;2.60;99.90;;;;;;5078583;28;20141;-90
2022/03/07 08:39:16;;;;;;;15.38;8.52;;;2.70;99.90;;;;;;5078445;28;20044;-90
2022/03/07 08:41:41;;;;;;;13.45;7.63;;;2.80;99.90;;;;;;5062027;28;20405;-91
2022/03/07 08:44:07;;;;;;;12.00;7.30;;;2.90;99.90;;;;;;5091580;28;20062;-90
2022/03/07 08:46:33;;;;;;;11.38;6.07;;;2.90;99.90;;;;;;5088049;28;20527;-91
2022/03/07 08:48:59;;;;;;;9.02;5.18;;;3.00;99.90;;;;;;5096045;28;20456;-90
2022/03/07 08:51:24;;;;;;;8.00;5.35;;;3.10;99.90;;;;;;5062272;28;20082;-91
2022/03/07 08:53:50;;;;;;;11.20;5.05;;;3.20;99.90;;;;;;5061861;28;20576;-90
2022/03/07 08:56:16;;;;;;;11.15;5.32;;;3.40;99.90;;;;;;5077120;28;20517;-91
2022/03/07 08:58:41;;;;;;;13.63;6.00;;;3.50;99.90;;;;;;5077527;28;20651;-91
2022/03/07 09:01:07;;;;;;;10.75;6.55;;;3.80;99.90;;;;;;5060944;28;20124;-91
2022/03/07 09:03:34;;;;;;;9.90;4.97;;;3.70;99.90;;;;;;5077591;28;20099;-91
2022/03/07 09:06:01;;;;;;;8.18;4.10;;;3.70;99.90;;;;;;5077456;28;20052;-90
2022/03/07 09:08:27;;;;;;;9.13;3.90;;;3.90;99.90;;;;;;5060962;28;20048;-92
2022/03/07 09:10:52;;;;;;;9.63;4.43;;;4.00;99.90;;;;;;5060590;28;20044;-91
2022/03/07 09:13:18;;;;;;;9.32;5.07;;;4.40;99.90;;;;;;5060129;28;20127;-91
2022/03/07 09:15:45;;;;;;;12.93;5.90;;;4.20;99.90;;;;;;5077669;28;20040;-91
2022/03/07 09:18:12;;;;;;;7.10;5.10;;;4.50;99.90;;;;;;5060764;28;20052;-91
2022/03/07 09:20:39;;;;;;;9.73;4.78;;;5.00;99.90;;;;;;5060445;28;20105;-92
2022/03/07 09:23:05;;;;;;;7.88;5.00;;;5.70;99.90;;;;;;5076920;28;20524;-92
2022/03/07 09:25:31;;;;;;;7.72;4.30;;;6.80;99.90;;;;;;5077608;28;20040;-92
2022/03/07 09:27:57;;;;;;;6.40;4.20;;;8.00;99.90;;;;;;5077597;28;20040;-92
2022/03/07 09:30:23;;;;;;;9.23;4.63;;;9.30;99.90;;;;;;5060644;28;20067;-92
2022/03/07 09:32:50;;;;;;;10.27;4.22;;;10.40;99.90;;;;;;5060161;28;20142;-92
2022/03/07 09:35:16;;;;;;;7.00;3.72;;;11.50;99.90;;;;;;5060841;28;20131;-92
2022/03/07 09:37:41;;;;;;;4.97;2.80;;;12.40;99.90;;;;;;5060834;28;20142;-92
2022/03/07 09:40:08;;;;;;;5.57;2.80;;;13.20;99.90;;;;;;5059927;28;20117;-93
2022/03/07 09:42:34;;;;;;;7.57;3.00;;;13.80;99.90;;;;;;5060335;28;20044;-93
2022/03/07 09:45:00;;;;;;;5.95;2.72;;;14.40;99.90;;;;;;5076874;28;20048;-93
2022/03/07 09:47:27;;;;;;;7.20;2.83;;;14.90;99.90;;;;;;5060440;28;20451;-92
2022/03/07 09:49:52;;;;;;;8.00;3.47;;;15.50;97.60;;;;;;5059834;28;20043;-92
2022/03/07 09:52:18;;;;;;;6.68;3.22;;;15.90;93.30;;;;;;5076508;28;20036;-93
2022/03/07 09:54:44;;;;;;;6.03;3.47;;;16.20;88.10;;;;;;5060146;28;20036;-93
2022/03/07 09:57:10;;;;;;;4.00;2.45;;;16.30;83.20;;;;;;5071518;28;20036;-93
2022/03/07 09:59:36;;;;;;;6.55;3.58;;;16.40;80.30;;;;;;5039687;28;20052;-93
2022/03/07 10:02:12;;;;;;;5.38;3.17;;;16.80;75.90;;;;;;5039380;28;20380;-93
2022/03/07 10:04:45;;;;;;;6.13;3.25;;;17.10;67.10;;;;;;5056477;28;20048;-93
2022/03/07 10:07:12;;;;;;;7.20;3.63;;;17.30;67.10;;;;;;5039709;28;20045;-94
2022/03/07 10:09:38;;;;;;;5.68;3.30;;;17.50;65.10;;;;;;5056282;28;20044;-93
2022/03/07 10:12:04;;;;;;;7.97;3.92;;;18.00;63.10;;;;;;5056230;28;20059;-94
2022/03/07 10:14:46;;;;;;;5.43;3.50;;;18.30;61.90;;;;;;5039804;28;20052;-94
2022/03/07 10:17:26;;;;;;;6.95;3.30;;;18.60;58.90;;;;;;5039691;28;20064;-94
2022/03/07 10:19:54;;;;;;;5.20;3.30;;;19.10;56.40;;;;;;5040174;28;20064;-94
2022/03/07 10:22:27;;;;;;;4.30;3.03;;;19.40;56.90;;;;;;5056746;28;20055;-94
2022/03/07 10:25:01;;;;;;;9.15;4.10;;;18.70;54.30;;;;;;5056566;28;20131;-93
2022/03/07 10:27:33;;;;;;;6.47;4.00;;;17.90;55.30;;;;;;5038996;28;20052;-94
2022/03/07 10:29:59;;;;;;;6.47;3.67;;;17.90;56.40;;;;;;5038823;28;20050;-94
2022/03/07 10:32:25;;;;;;;5.13;3.05;;;18.10;54.90;;;;;;5038866;28;20044;-93
2022/03/07 10:34:51;;;;;;;6.07;3.10;;;18.30;54.40;;;;;;5055407;28;20071;-94
2022/03/07 10:37:17;;;;;;;6.40;3.08;;;18.40;53.70;;;;;;5040334;28;20405;-93
2022/03/07 10:39:52;;;;;;;5.07;2.85;;;18.70;52.80;;;;;;5039364;28;20166;-94
2022/03/07 10:42:20;;;;;;;6.72;2.72;;;19.30;50.10;;;;;;5040370;28;20041;-95
2022/03/07 10:44:46;;;;;;;5.32;2.80;;;19.30;49.70;;;;;;5039612;28;20082;-95
2022/03/07 10:47:17;;;;;;;4.97;2.63;;;18.60;49.80;;;;;;5039979;28;20056;-93
2022/03/07 10:50:08;;;;;;;5.55;2.78;;;18.00;51.40;;;;;;5039941;28;20549;-93
2022/03/07 10:52:41;;;;;;;9.85;3.58;;;16.60;51.40;;;;;;5056148;28;20553;-93
2022/03/07 10:55:09;;;;;;;7.57;3.25;;;15.20;56.20;;;;;;5039425;28;20095;-94
2022/03/07 10:57:38;;;;;;;6.10;3.13;;;14.30;62.00;;;;;;5039907;28;20055;-94
2022/03/07 11:00:07;;;;;;;7.07;3.40;;;13.90;67.60;;;;;;5055787;28;20485;-94
2022/03/07 11:02:41;;;;;;;7.88;3.40;;;14.50;67.60;;;;;;5039491;28;20436;-94
2022/03/07 11:05:08;;;;;;;6.57;3.42;;;15.20;60.90;;;;;;5056441;28;20051;-94
2022/03/07 11:07:39;;;;;;;7.80;3.72;;;15.60;61.70;;;;;;5039573;28;20041;-95
2022/03/07 11:10:07;;;;;;;8.82;3.30;;;16.70;59.10;;;;;;5056874;28;20067;-95
2022/03/07 11:12:33;;;;;;;4.50;3.05;;;17.90;54.50;;;;;;5040179;28;20080;-95
2022/03/07 11:15:06;;;;;;;5.13;3.17;;;18.50;52.80;;;;;;5039910;28;20044;-95
2022/03/07 11:17:33;;;;;;;4.88;3.58;;;19.10;51.20;;;;;;5039766;28;20049;-95
2022/03/07 11:20:00;;;;;;;5.90;3.05;;;19.50;50.00;;;;;;5039582;28;20041;-96
2022/03/07 11:22:27;;;;;;;6.28;3.03;;;19.40;49.20;;;;;;5040121;28;20052;-96
2022/03/07 11:24:53;;;;;;;5.65;2.35;;;19.50;48.40;;;;;;5056645;28;20048;-96
2022/03/07 11:27:19;;;;;;;4.13;2.55;;;19.70;47.40;;;;;;5040158;28;20080;-96
2022/03/07 11:29:45;;;;;;;8.60;3.53;;;20.00;47.20;;;;;;5040002;28;20086;-96
2022/03/07 11:32:18;;;;;;;4.30;2.97;;;20.50;45.90;;;;;;5056096;28;20501;-96
2022/03/07 11:34:58;;;;;;;4.40;2.60;;;20.60;45.00;;;;;;5040137;28;20486;-96
2022/03/07 11:37:29;;;;;;;6.65;3.15;;;19.40;44.60;;;;;;5056572;28;20049;-95
2022/03/07 11:39:58;;;;;;;6.40;2.85;;;18.10;47.10;;;;;;5040262;28;20098;-96
2022/03/07 11:42:37;;;;;;;4.75;2.80;;;17.30;49.30;;;;;;5056315;28;20052;-94
2022/03/07 11:45:18;;;;;;;4.68;2.97;;;17.90;50.10;;;;;;5056021;28;20041;-95
2022/03/07 11:47:45;;;;;;;5.97;3.13;;;18.90;49.30;;;;;;5042479;28;20516;-96
2022/03/07 11:50:11;;;;;;;5.43;2.80;;;19.90;47.60;;;;;;5042682;28;20079;-96
2022/03/07 11:52:37;;;;;;;3.80;2.38;;;20.60;46.00;;;;;;5042317;28;20045;-96
2022/03/07 11:55:10;;;;;;;3.45;2.28;;;21.30;45.00;;;;;;5058949;28;20087;-96
2022/03/07 11:57:47;;;;;;;5.82;2.58;;;22.00;43.40;;;;;;5059460;28;20045;-96
2022/03/07 12:00:18;;;;;;;6.68;2.00;;;22.50;42.10;;;;;;5043137;28;20127;-95
2022/03/07 12:02:47;;;;;;;1.73;1.63;;;22.80;41.20;;;;;;5059304;28;20051;-94
2022/03/07 12:05:33;;;;;;;4.05;1.45;;;23.10;40.70;;;;;;5042812;28;20049;-96
2022/03/07 12:08:11;;;;;;;2.80;1.67;;;23.20;38.10;;;;;;5042818;28;20398;-95
2022/03/07 12:10:50;;;;;;;1.92;1.33;;;23.10;38.40;;;;;;5043415;28;20037;-96
2022/03/07 12:13:16;;;;;;;2.65;1.38;;;22.00;38.50;;;;;;5059544;28;20040;-96
2022/03/07 12:15:53;;;;;;;3.40;1.30;;;21.40;39.80;;;;;;5043039;28;20048;-95
2022/03/07 12:18:20;;;;;;;2.63;1.40;;;21.30;39.60;;;;;;5042571;28;20052;-95
2022/03/07 12:20:57;;;;;;;2.92;1.40;;;21.40;40.30;;;;;;5055542;28;20075;-95
2022/03/07 12:24:00;;;;;;;3.35;1.40;;;21.70;39.50;;;;;;5055545;28;20206;-96
2022/03/07 12:26:27;;;;;;;1.85;1.25;;;22.10;37.80;;;;;;5022662;28;20060;-96
2022/03/07 12:28:53;;;;;;;2.20;1.35;;;21.70;38.80;;;;;;5022092;28;20095;-93
2022/03/07 12:31:18;;;;;;;3.50;1.27;;;21.10;38.80;;;;;;5038655;28;20076;-95
2022/03/07 12:33:46;;;;;;;2.38;1.15;;;19.60;38.90;;;;;;5022989;28;20493;-95
2022/03/07 12:36:17;;;;;;;3.80;1.30;;;18.20;40.60;;;;;;5022540;28;20045;-96
2022/03/07 12:38:43;;;;;;;;;;;17.70;42.90;;;;;;5036962;28;20036;-92